Thursday, October 19, 2017, 2:22 PM EDT

KSEG, Selinsgrove Penn Valley Airport

Location: Selinsgrove, PA, United States Lat: 40.817
Local Time: 2:22 PM EDT (18:22 GMT) Lon: -76.867
Time Zone: US/Eastern Elev: 449 ft

Show me the last for .
Show Decoded

2017-10-19 13:53 METAR KSEG 191753Z AUTO 20008KT 10SM CLR 21/09 A3015 RMK AO2 SLP210 T02060089
                 10211 20056 58028 =
2017-10-19 12:53 METAR KSEG 191653Z AUTO 18007KT 10SM CLR 19/09 A3019 RMK AO2 SLP224 T01890094 =
2017-10-19 11:53 METAR KSEG 191553Z AUTO 16005KT 10SM CLR 17/09 A3022 RMK AO2 SLP234 T01670094 =
2017-10-19 10:53 METAR KSEG 191453Z AUTO VRB04KT 10SM CLR 14/09 A3024 RMK AO2 SLP239 T01440089
                 58002 =
2017-10-19 09:53 METAR KSEG 191353Z AUTO 14004KT 10SM CLR 11/09 A3025 RMK AO2 SLP244 T01060094 =
2017-10-19 09:39 METAR KSEG 191339Z AUTO 00000KT 7SM SCT001 09/09 A3025 RMK AO2 T00890089 =
2017-10-19 09:31 METAR KSEG 191331Z AUTO 00000KT 4SM BR BKN001 08/08 A3025 RMK AO2 T00780078 =
2017-10-19 09:29 METAR KSEG 191329Z AUTO 13003KT 1 1/2SM BR BKN001 08/08 A3025 RMK AO2 T00780078
                 =
2017-10-19 08:53 METAR KSEG 191253Z AUTO 00000KT M1/4SM FG VV001 07/07 A3025 RMK AO2 SLP245
                 T00670067 =
2017-10-19 07:53 METAR KSEG 191153Z AUTO 00000KT M1/4SM FG VV001 06/06 A3024 RMK AO2 SLP242
                 T00560056 10061 20044 58002 =
2017-10-19 06:53 METAR KSEG 191053Z AUTO 00000KT M1/4SM FG VV001 06/06 A3024 RMK AO2 SLP243
                 T00610061 =
2017-10-19 05:53 METAR KSEG 190953Z AUTO 00000KT 1/2SM FG VV002 06/06 A3025 RMK AO2 SLP243
                 T00560056 =
2017-10-19 05:50 METAR KSEG 190950Z AUTO 00000KT 3/4SM BR VV002 06/06 A3025 RMK AO2 =
2017-10-19 05:39 METAR KSEG 190939Z AUTO 00000KT 1 3/4SM BR OVC002 06/06 A3025 RMK AO2 T00560056
                 =
2017-10-19 05:29 METAR KSEG 190929Z AUTO 00000KT 4SM BR OVC002 05/05 A3024 RMK AO2 T00500050 =
2017-10-19 05:17 METAR KSEG 190917Z AUTO 00000KT 2 1/2SM BR OVC001 06/06 A3025 RMK AO2 T00560056
                 =
2017-10-19 05:07 METAR KSEG 190907Z AUTO 00000KT 1 3/4SM BR OVC001 06/06 A3025 RMK AO2 T00560056
                 =
2017-10-19 05:00 METAR KSEG 190900Z AUTO 36003KT 3SM BR OVC001 05/05 A3025 RMK AO2 T00500050 =
2017-10-19 04:53 METAR KSEG 190853Z AUTO 33004KT 2 1/2SM BR BKN001 04/04 A3025 RMK AO2 SLP244
                 T00440044 56005 =
2017-10-19 04:42 METAR KSEG 190842Z AUTO 00000KT 2 1/2SM BR BKN001 04/04 A3025 RMK AO2 T00440044
                 =
2017-10-19 04:39 METAR KSEG 190839Z AUTO 00000KT 7SM SCT003 04/04 A3025 RMK AO2 T00440044 =
2017-10-19 03:53 METAR KSEG 190753Z AUTO 00000KT 6SM BR CLR 05/05 A3025 RMK AO2 SLP244 T00500050
                 =
2017-10-19 02:53 METAR KSEG 190653Z AUTO 00000KT 10SM CLR 06/06 A3025 RMK AO2 SLP244 T00610061 =
2017-10-19 01:53 METAR KSEG 190553Z AUTO 00000KT 8SM CLR 06/06 A3026 RMK AO2 SLP249 T00560056
                 10111 20056 56007 =
2017-10-19 00:53 METAR KSEG 190453Z AUTO 00000KT 7SM CLR 07/06 A3026 RMK AO2 SLP249 T00670061
                 402110028 =
2017-10-18 23:53 METAR KSEG 190353Z AUTO 00000KT 10SM CLR 07/07 A3027 RMK AO2 SLP252 T00720067 =
2017-10-18 22:53 METAR KSEG 190253Z AUTO 00000KT 10SM CLR 08/08 A3028 RMK AO2 SLP257 T00780078
                 53002 =
2017-10-18 21:53 METAR KSEG 190153Z AUTO 00000KT 10SM CLR 09/08 A3028 RMK AO2 SLP255 T00890083 =
2017-10-18 20:53 METAR KSEG 190053Z AUTO 00000KT 10SM CLR 09/08 A3028 RMK AO2 SLP255 T00940083 =
2017-10-18 19:53 METAR KSEG 182353Z AUTO 00000KT 10SM CLR 11/10 A3028 RMK AO2 SLP256 T01110100
                 10211 20111 53008 =
2017-10-18 18:53 METAR KSEG 182253Z AUTO 00000KT 10SM CLR 13/11 A3026 RMK AO2 SLP249 T01330106 =
2017-10-18 17:53 METAR KSEG 182153Z AUTO 18003KT 10SM CLR 19/09 A3025 RMK AO2 SLP245 T01890094 =
2017-10-18 16:53 METAR KSEG 182053Z AUTO 17007KT 10SM CLR 21/09 A3026 RMK AO2 SLP246 T02060089
                 56019 =
2017-10-18 15:53 METAR KSEG 181953Z AUTO 16008KT 10SM CLR 20/08 A3027 RMK AO2 SLP252 T02000083 =
2017-10-18 14:53 METAR KSEG 181853Z AUTO 16005KT 10SM CLR 20/09 A3029 RMK AO2 SLP257 T02000094 =

Support USWX by starting your Amazon purchase here.